sensor_id;sensor_type;location;lat;lon;timestamp;pressure;altitude;pressure_sealevel;temperature;humidity
10720;BME280;5411;58.386;15.560;2023-04-27T00:00:26;99642.56;;;2.31;97.96
10720;BME280;5411;58.386;15.560;2023-04-27T00:02:54;99643.09;;;2.26;98.24
10720;BME280;5411;58.386;15.560;2023-04-27T00:05:24;99639.78;;;2.24;97.69
10720;BME280;5411;58.386;15.560;2023-04-27T00:07:55;99641.59;;;2.24;98.21
10720;BME280;5411;58.386;15.560;2023-04-27T00:10:23;99640.94;;;2.22;97.82
10720;BME280;5411;58.386;15.560;2023-04-27T00:12:52;99633.84;;;2.14;98.34
10720;BME280;5411;58.386;15.560;2023-04-27T00:15:24;99646.22;;;2.13;98.39
10720;BME280;5411;58.386;15.560;2023-04-27T00:17:53;99649.88;;;2.12;98.97
10720;BME280;5411;58.386;15.560;2023-04-27T00:20:21;99642.28;;;2.09;99.93
10720;BME280;5411;58.386;15.560;2023-04-27T00:22:50;99648.72;;;2.07;99.40
10720;BME280;5411;58.386;15.560;2023-04-27T00:25:19;99654.97;;;2.06;99.77
10720;BME280;5411;58.386;15.560;2023-04-27T00:27:47;99655.97;;;2.05;100.00
10720;BME280;5411;58.386;15.560;2023-04-27T00:30:16;99650.03;;;2.03;99.59
10720;BME280;5411;58.386;15.560;2023-04-27T00:32:46;99648.38;;;2.02;100.00
10720;BME280;5411;58.386;15.560;2023-04-27T00:35:14;99650.19;;;2.01;100.00
10720;BME280;5411;58.386;15.560;2023-04-27T00:37:44;99642.28;;;2.01;100.00
10720;BME280;5411;58.386;15.560;2023-04-27T00:40:14;99644.75;;;2.03;100.00
10720;BME280;5411;58.386;15.560;2023-04-27T00:42:42;99649.03;;;2.04;100.00
10720;BME280;5411;58.386;15.560;2023-04-27T00:48:00;99642.44;;;2.00;100.00
10720;BME280;5411;58.386;15.560;2023-04-27T00:50:31;99643.44;;;1.99;100.00
10720;BME280;5411;58.386;15.560;2023-04-27T00:53:00;99637.00;;;1.93;100.00
10720;BME280;5411;58.386;15.560;2023-04-27T00:55:31;99628.44;;;1.91;100.00
10720;BME280;5411;58.386;15.560;2023-04-27T00:58:00;99633.38;;;1.94;100.00
10720;BME280;5411;58.386;15.560;2023-04-27T01:00:31;99647.41;;;1.95;100.00
10720;BME280;5411;58.386;15.560;2023-04-27T01:03:01;99635.34;;;1.92;100.00
10720;BME280;5411;58.386;15.560;2023-04-27T01:05:35;99646.56;;;1.94;100.00
10720;BME280;5411;58.386;15.560;2023-04-27T01:08:06;99640.13;;;1.89;100.00
10720;BME280;5411;58.386;15.560;2023-04-27T01:10:36;99637.34;;;1.90;100.00
10720;BME280;5411;58.386;15.560;2023-04-27T01:13:05;99638.81;;;1.93;100.00
10720;BME280;5411;58.386;15.560;2023-04-27T01:15:33;99642.59;;;1.90;100.00
10720;BME280;5411;58.386;15.560;2023-04-27T01:18:03;99639.66;;;1.93;100.00
10720;BME280;5411;58.386;15.560;2023-04-27T01:20:32;99635.53;;;1.91;100.00
10720;BME280;5411;58.386;15.560;2023-04-27T01:23:02;99630.56;;;1.88;100.00
10720;BME280;5411;58.386;15.560;2023-04-27T01:25:32;99640.63;;;1.92;100.00
10720;BME280;5411;58.386;15.560;2023-04-27T01:28:01;99641.63;;;1.91;100.00
10720;BME280;5411;58.386;15.560;2023-04-27T01:30:33;99636.50;;;1.90;100.00
10720;BME280;5411;58.386;15.560;2023-04-27T01:33:01;99643.94;;;1.86;100.00
10720;BME280;5411;58.386;15.560;2023-04-27T01:35:30;99639.66;;;1.85;100.00
10720;BME280;5411;58.386;15.560;2023-04-27T01:38:03;99641.63;;;1.83;100.00
10720;BME280;5411;58.386;15.560;2023-04-27T01:40:33;99641.63;;;1.83;100.00
10720;BME280;5411;58.386;15.560;2023-04-27T01:43:01;99642.13;;;1.78;100.00
10720;BME280;5411;58.386;15.560;2023-04-27T01:45:29;99640.63;;;1.76;100.00
10720;BME280;5411;58.386;15.560;2023-04-27T01:47:57;99647.53;;;1.77;100.00
10720;BME280;5411;58.386;15.560;2023-04-27T01:50:26;99640.63;;;1.76;100.00
10720;BME280;5411;58.386;15.560;2023-04-27T01:52:54;99639.81;;;1.75;100.00
10720;BME280;5411;58.386;15.560;2023-04-27T01:55:22;99642.59;;;1.74;100.00
10720;BME280;5411;58.386;15.560;2023-04-27T01:57:54;99644.09;;;1.76;100.00
10720;BME280;5411;58.386;15.560;2023-04-27T02:00:33;99638.00;;;1.76;100.00
10720;BME280;5411;58.386;15.560;2023-04-27T02:03:02;99638.50;;;1.79;100.00
10720;BME280;5411;58.386;15.560;2023-04-27T02:05:30;99649.53;;;1.83;100.00
10720;BME280;5411;58.386;15.560;2023-04-27T02:07:58;99633.88;;;1.82;100.00
10720;BME280;5411;58.386;15.560;2023-04-27T02:10:27;99645.09;;;1.84;100.00
10720;BME280;5411;58.386;15.560;2023-04-27T02:12:57;99637.34;;;1.82;100.00
10720;BME280;5411;58.386;15.560;2023-04-27T02:15:26;99648.56;;;1.84;100.00
10720;BME280;5411;58.386;15.560;2023-04-27T02:18:04;99637.03;;;1.85;100.00
10720;BME280;5411;58.386;15.560;2023-04-27T02:20:33;99643.13;;;1.86;100.00
10720;BME280;5411;58.386;15.560;2023-04-27T02:23:02;99639.00;;;1.83;100.00
10720;BME280;5411;58.386;15.560;2023-04-27T02:25:30;99634.38;;;1.85;100.00
10720;BME280;5411;58.386;15.560;2023-04-27T02:28:00;99644.94;;;1.85;100.00
10720;BME280;5411;58.386;15.560;2023-04-27T02:30:29;99649.72;;;1.82;100.00
10720;BME280;5411;58.386;15.560;2023-04-27T02:32:58;99657.13;;;1.86;100.00
10720;BME280;5411;58.386;15.560;2023-04-27T02:35:27;99641.94;;;1.80;100.00
10720;BME280;5411;58.386;15.560;2023-04-27T02:37:56;99653.84;;;1.84;100.00
10720;BME280;5411;58.386;15.560;2023-04-27T02:40:25;99655.81;;;1.82;100.00
10720;BME280;5411;58.386;15.560;2023-04-27T02:42:54;99649.19;;;1.78;100.00
10720;BME280;5411;58.386;15.560;2023-04-27T02:45:24;99649.88;;;1.80;100.00
10720;BME280;5411;58.386;15.560;2023-04-27T02:47:54;99645.25;;;1.82;100.00
10720;BME280;5411;58.386;15.560;2023-04-27T02:50:22;99654.81;;;1.83;100.00
10720;BME280;5411;58.386;15.560;2023-04-27T02:52:51;99654.00;;;1.83;100.00
10720;BME280;5411;58.386;15.560;2023-04-27T02:55:19;99660.91;;;1.84;100.00
10720;BME280;5411;58.386;15.560;2023-04-27T02:57:47;99659.25;;;1.83;100.00
10720;BME280;5411;58.386;15.560;2023-04-27T03:00:16;99659.25;;;1.83;100.00
10720;BME280;5411;58.386;15.560;2023-04-27T03:02:47;99661.91;;;1.83;100.00
10720;BME280;5411;58.386;15.560;2023-04-27T03:05:16;99666.19;;;1.84;100.00
10720;BME280;5411;58.386;15.560;2023-04-27T03:07:49;99661.75;;;1.84;100.00
10720;BME280;5411;58.386;15.560;2023-04-27T03:10:17;99658.44;;;1.82;100.00
10720;BME280;5411;58.386;15.560;2023-04-27T03:12:46;99663.19;;;1.87;100.00
10720;BME280;5411;58.386;15.560;2023-04-27T03:15:14;99661.91;;;1.83;100.00
10720;BME280;5411;58.386;15.560;2023-04-27T03:17:42;99669.50;;;1.86;100.00
10720;BME280;5411;58.386;15.560;2023-04-27T03:20:13;99673.44;;;1.90;100.00
10720;BME280;5411;58.386;15.560;2023-04-27T03:22:42;99664.84;;;1.88;100.00
10720;BME280;5411;58.386;15.560;2023-04-27T03:25:11;99663.03;;;1.88;100.00
10720;BME280;5411;58.386;15.560;2023-04-27T03:27:40;99681.69;;;1.95;100.00
10720;BME280;5411;58.386;15.560;2023-04-27T03:30:10;99674.44;;;1.97;100.00
10720;BME280;5411;58.386;15.560;2023-04-27T03:32:39;99677.91;;;1.97;100.00
10720;BME280;5411;58.386;15.560;2023-04-27T03:35:08;99684.31;;;2.03;100.00
10720;BME280;5411;58.386;15.560;2023-04-27T03:37:41;99685.81;;;2.05;100.00
10720;BME280;5411;58.386;15.560;2023-04-27T03:40:12;99686.63;;;2.14;100.00
10720;BME280;5411;58.386;15.560;2023-04-27T03:42:41;99684.16;;;2.21;100.00
10720;BME280;5411;58.386;15.560;2023-04-27T03:45:13;99683.66;;;2.25;100.00
10720;BME280;5411;58.386;15.560;2023-04-27T03:47:45;99680.50;;;2.30;100.00
10720;BME280;5411;58.386;15.560;2023-04-27T03:50:14;99682.16;;;2.31;100.00
10720;BME280;5411;58.386;15.560;2023-04-27T03:52:45;99684.97;;;2.37;100.00
10720;BME280;5411;58.386;15.560;2023-04-27T03:55:15;99682.97;;;2.47;100.00
10720;BME280;5411;58.386;15.560;2023-04-27T03:57:47;99686.09;;;2.51;100.00
10720;BME280;5411;58.386;15.560;2023-04-27T04:00:15;99689.06;;;2.56;100.00
10720;BME280;5411;58.386;15.560;2023-04-27T04:02:44;99694.50;;;2.63;100.00
10720;BME280;5411;58.386;15.560;2023-04-27T04:05:13;99693.97;;;2.67;100.00
10720;BME280;5411;58.386;15.560;2023-04-27T04:07:46;99685.72;;;2.70;100.00
10720;BME280;5411;58.386;15.560;2023-04-27T04:10:14;99688.16;;;2.80;100.00
10720;BME280;5411;58.386;15.560;2023-04-27T04:12:45;99702.53;;;2.85;100.00
10720;BME280;5411;58.386;15.560;2023-04-27T04:15:14;99700.19;;;2.91;100.00
10720;BME280;5411;58.386;15.560;2023-04-27T04:17:47;99696.22;;;2.95;100.00
10720;BME280;5411;58.386;15.560;2023-04-27T04:20:17;99691.25;;;3.00;100.00
10720;BME280;5411;58.386;15.560;2023-04-27T04:22:46;99699.28;;;3.06;100.00
10720;BME280;5411;58.386;15.560;2023-04-27T04:25:17;99708.38;;;3.12;100.00
10720;BME280;5411;58.386;15.560;2023-04-27T04:27:46;99703.41;;;3.17;100.00
10720;BME280;5411;58.386;15.560;2023-04-27T04:30:15;99710.63;;;3.23;100.00
10720;BME280;5411;58.386;15.560;2023-04-27T04:32:43;99704.69;;;3.29;100.00
10720;BME280;5411;58.386;15.560;2023-04-27T04:35:12;99699.69;;;3.34;100.00
10720;BME280;5411;58.386;15.560;2023-04-27T04:37:43;99707.59;;;3.42;100.00
10720;BME280;5411;58.386;15.560;2023-04-27T04:40:16;99696.84;;;3.44;100.00
10720;BME280;5411;58.386;15.560;2023-04-27T04:42:45;99706.03;;;3.56;100.00
10720;BME280;5411;58.386;15.560;2023-04-27T04:45:13;99711.09;;;3.66;100.00
10720;BME280;5411;58.386;15.560;2023-04-27T04:47:42;99707.75;;;3.72;100.00
10720;BME280;5411;58.386;15.560;2023-04-27T04:50:14;99712.97;;;3.80;100.00
10720;BME280;5411;58.386;15.560;2023-04-27T04:52:43;99711.28;;;3.87;100.00
10720;BME280;5411;58.386;15.560;2023-04-27T04:55:12;99716.22;;;3.90;100.00
10720;BME280;5411;58.386;15.560;2023-04-27T04:57:44;99718.16;;;3.96;100.00
10720;BME280;5411;58.386;15.560;2023-04-27T05:00:13;99714.63;;;4.04;100.00
10720;BME280;5411;58.386;15.560;2023-04-27T05:02:42;99714.75;;;4.10;100.00
10720;BME280;5411;58.386;15.560;2023-04-27T05:05:10;99722.63;;;4.18;100.00
10720;BME280;5411;58.386;15.560;2023-04-27T05:07:39;99720.94;;;4.25;100.00
10720;BME280;5411;58.386;15.560;2023-04-27T05:10:08;99712.63;;;4.28;100.00
10720;BME280;5411;58.386;15.560;2023-04-27T05:12:38;99718.50;;;4.39;100.00
10720;BME280;5411;58.386;15.560;2023-04-27T05:15:09;99717.25;;;4.49;100.00
10720;BME280;5411;58.386;15.560;2023-04-27T05:17:38;99720.63;;;4.58;100.00
10720;BME280;5411;58.386;15.560;2023-04-27T05:20:08;99710.34;;;4.63;100.00
10720;BME280;5411;58.386;15.560;2023-04-27T05:22:36;99710.06;;;4.73;100.00
10720;BME280;5411;58.386;15.560;2023-04-27T05:25:05;99717.66;;;4.76;100.00
10720;BME280;5411;58.386;15.560;2023-04-27T05:27:34;99709.44;;;4.85;99.66
10720;BME280;5411;58.386;15.560;2023-04-27T05:30:06;99711.63;;;4.96;99.20
10720;BME280;5411;58.386;15.560;2023-04-27T05:32:35;99722.16;;;5.05;99.26
10720;BME280;5411;58.386;15.560;2023-04-27T05:35:05;99717.75;;;5.12;97.80
10720;BME280;5411;58.386;15.560;2023-04-27T05:37:36;99721.31;;;5.19;97.45
10720;BME280;5411;58.386;15.560;2023-04-27T05:40:08;99726.53;;;5.27;96.95
10720;BME280;5411;58.386;15.560;2023-04-27T05:42:36;99725.59;;;5.34;95.98
10720;BME280;5411;58.386;15.560;2023-04-27T05:45:06;99725.69;;;5.41;95.56
10720;BME280;5411;58.386;15.560;2023-04-27T05:47:36;99718.06;;;5.53;95.34
10720;BME280;5411;58.386;15.560;2023-04-27T05:50:05;99717.94;;;5.61;94.25
10720;BME280;5411;58.386;15.560;2023-04-27T05:52:33;99728.47;;;5.69;91.68
10720;BME280;5411;58.386;15.560;2023-04-27T05:55:04;99730.34;;;5.75;90.74
10720;BME280;5411;58.386;15.560;2023-04-27T05:57:33;99729.69;;;5.88;90.52
10720;BME280;5411;58.386;15.560;2023-04-27T06:00:02;99732.19;;;5.89;89.55
10720;BME280;5411;58.386;15.560;2023-04-27T06:02:37;99730.25;;;5.98;89.85
10720;BME280;5411;58.386;15.560;2023-04-27T06:05:07;99729.09;;;6.07;88.44
10720;BME280;5411;58.386;15.560;2023-04-27T06:07:35;99745.66;;;6.09;87.08
10720;BME280;5411;58.386;15.560;2023-04-27T06:10:05;99738.13;;;6.13;84.77
10720;BME280;5411;58.386;15.560;2023-04-27T06:12:34;99733.44;;;6.15;84.64
10720;BME280;5411;58.386;15.560;2023-04-27T06:15:04;99737.56;;;6.17;86.03
10720;BME280;5411;58.386;15.560;2023-04-27T06:17:34;99735.41;;;6.27;82.87
10720;BME280;5411;58.386;15.560;2023-04-27T06:20:05;99735.66;;;6.32;83.67
10720;BME280;5411;58.386;15.560;2023-04-27T06:22:35;99743.94;;;6.44;83.17
10720;BME280;5411;58.386;15.560;2023-04-27T06:25:04;99734.00;;;6.53;82.68
10720;BME280;5411;58.386;15.560;2023-04-27T06:27:33;99739.56;;;6.58;81.77
10720;BME280;5411;58.386;15.560;2023-04-27T06:30:09;99742.59;;;6.55;82.04
10720;BME280;5411;58.386;15.560;2023-04-27T06:32:37;99739.00;;;6.62;82.05
10720;BME280;5411;58.386;15.560;2023-04-27T06:35:08;99736.75;;;6.66;79.66
10720;BME280;5411;58.386;15.560;2023-04-27T06:37:40;99739.66;;;6.71;79.99
10720;BME280;5411;58.386;15.560;2023-04-27T06:40:13;99744.44;;;6.82;79.88
10720;BME280;5411;58.386;15.560;2023-04-27T06:42:42;99745.34;;;6.96;78.81
10720;BME280;5411;58.386;15.560;2023-04-27T06:45:11;99745.44;;;7.09;78.42
10720;BME280;5411;58.386;15.560;2023-04-27T06:47:39;99740.94;;;7.09;75.05
10720;BME280;5411;58.386;15.560;2023-04-27T06:50:09;99742.97;;;7.07;73.97
10720;BME280;5411;58.386;15.560;2023-04-27T06:52:38;99736.84;;;7.07;74.01
10720;BME280;5411;58.386;15.560;2023-04-27T06:55:07;99749.22;;;6.93;71.96
10720;BME280;5411;58.386;15.560;2023-04-27T06:57:35;99746.34;;;6.88;72.25
10720;BME280;5411;58.386;15.560;2023-04-27T07:00:04;99743.88;;;6.87;73.43
10720;BME280;5411;58.386;15.560;2023-04-27T07:02:33;99748.66;;;6.98;74.52
10720;BME280;5411;58.386;15.560;2023-04-27T07:05:02;99745.41;;;7.02;70.20
10720;BME280;5411;58.386;15.560;2023-04-27T07:07:31;99747.69;;;7.05;69.69
10720;BME280;5411;58.386;15.560;2023-04-27T07:10:02;99746.63;;;7.00;70.45
10720;BME280;5411;58.386;15.560;2023-04-27T07:12:32;99743.78;;;7.01;70.19
10720;BME280;5411;58.386;15.560;2023-04-27T07:15:00;99749.91;;;7.02;70.54
10720;BME280;5411;58.386;15.560;2023-04-27T07:17:30;99751.41;;;7.11;68.50
10720;BME280;5411;58.386;15.560;2023-04-27T07:19:58;99752.72;;;7.28;69.40
10720;BME280;5411;58.386;15.560;2023-04-27T07:22:29;99757.03;;;7.29;65.59
10720;BME280;5411;58.386;15.560;2023-04-27T07:24:59;99749.44;;;7.26;63.56
10720;BME280;5411;58.386;15.560;2023-04-27T07:27:28;99764.97;;;7.23;65.04
10720;BME280;5411;58.386;15.560;2023-04-27T07:29:57;99765.66;;;7.38;64.06
10720;BME280;5411;58.386;15.560;2023-04-27T07:32:25;99763.06;;;7.44;63.03
10720;BME280;5411;58.386;15.560;2023-04-27T07:34:57;99756.09;;;7.43;63.85
10720;BME280;5411;58.386;15.560;2023-04-27T07:37:25;99772.75;;;7.59;62.94
10720;BME280;5411;58.386;15.560;2023-04-27T07:39:54;99767.19;;;7.54;62.23
10720;BME280;5411;58.386;15.560;2023-04-27T07:42:25;99766.06;;;7.35;61.87
10720;BME280;5411;58.386;15.560;2023-04-27T07:44:53;99768.00;;;7.20;61.94
10720;BME280;5411;58.386;15.560;2023-04-27T07:47:22;99778.06;;;7.24;62.85
10720;BME280;5411;58.386;15.560;2023-04-27T07:49:51;99767.00;;;7.21;62.26
10720;BME280;5411;58.386;15.560;2023-04-27T07:52:19;99771.16;;;7.30;62.78
10720;BME280;5411;58.386;15.560;2023-04-27T07:54:48;99781.34;;;7.61;60.18
10720;BME280;5411;58.386;15.560;2023-04-27T07:57:16;99770.75;;;7.74;60.83
10720;BME280;5411;58.386;15.560;2023-04-27T07:59:46;99785.97;;;7.93;59.85
10720;BME280;5411;58.386;15.560;2023-04-27T08:02:15;99789.13;;;8.16;59.33
10720;BME280;5411;58.386;15.560;2023-04-27T08:04:46;99791.63;;;8.25;57.90
10720;BME280;5411;58.386;15.560;2023-04-27T08:07:17;99799.44;;;8.33;58.33
10720;BME280;5411;58.386;15.560;2023-04-27T08:09:45;99798.84;;;8.50;57.21
10720;BME280;5411;58.386;15.560;2023-04-27T08:12:14;99788.38;;;8.42;55.64
10720;BME280;5411;58.386;15.560;2023-04-27T08:14:42;99794.03;;;8.26;55.37
10720;BME280;5411;58.386;15.560;2023-04-27T08:17:13;99793.28;;;8.32;55.87
10720;BME280;5411;58.386;15.560;2023-04-27T08:19:43;99801.94;;;8.47;56.80
10720;BME280;5411;58.386;15.560;2023-04-27T08:22:11;99804.00;;;8.72;58.04
10720;BME280;5411;58.386;15.560;2023-04-27T08:24:42;99789.44;;;9.01;57.78
10720;BME280;5411;58.386;15.560;2023-04-27T08:27:10;99793.69;;;9.21;55.31
10720;BME280;5411;58.386;15.560;2023-04-27T08:29:44;99793.88;;;9.40;55.16
10720;BME280;5411;58.386;15.560;2023-04-27T08:32:14;99795.28;;;9.55;54.39
10720;BME280;5411;58.386;15.560;2023-04-27T08:34:43;99798.47;;;9.77;53.77
10720;BME280;5411;58.386;15.560;2023-04-27T08:37:15;99806.03;;;9.93;52.28
10720;BME280;5411;58.386;15.560;2023-04-27T08:39:46;99795.94;;;9.95;51.83
10720;BME280;5411;58.386;15.560;2023-04-27T08:42:15;99803.84;;;10.15;53.38
10720;BME280;5411;58.386;15.560;2023-04-27T08:44:44;99791.94;;;10.24;51.67
10720;BME280;5411;58.386;15.560;2023-04-27T08:47:14;99806.53;;;10.22;51.83
10720;BME280;5411;58.386;15.560;2023-04-27T08:49:42;99803.69;;;10.10;49.81
10720;BME280;5411;58.386;15.560;2023-04-27T08:52:11;99799.09;;;9.79;49.16
10720;BME280;5411;58.386;15.560;2023-04-27T08:54:40;99801.44;;;9.56;50.85
10720;BME280;5411;58.386;15.560;2023-04-27T08:57:11;99802.72;;;9.40;51.01
10720;BME280;5411;58.386;15.560;2023-04-27T08:59:40;99795.31;;;9.36;51.88
10720;BME280;5411;58.386;15.560;2023-04-27T09:02:18;99805.84;;;9.17;51.27
10720;BME280;5411;58.386;15.560;2023-04-27T09:04:47;99797.63;;;8.99;51.82
10720;BME280;5411;58.386;15.560;2023-04-27T09:07:17;99803.78;;;8.86;52.88
10720;BME280;5411;58.386;15.560;2023-04-27T09:09:47;99798.22;;;9.08;53.54
10720;BME280;5411;58.386;15.560;2023-04-27T09:12:16;99801.69;;;9.41;53.87
10720;BME280;5411;58.386;15.560;2023-04-27T09:14:55;99790.31;;;9.59;50.73
10720;BME280;5411;58.386;15.560;2023-04-27T09:17:25;99794.50;;;9.42;51.18
10720;BME280;5411;58.386;15.560;2023-04-27T09:20:03;99805.59;;;9.25;51.62
10720;BME280;5411;58.386;15.560;2023-04-27T09:22:44;99814.03;;;9.09;51.65
10720;BME280;5411;58.386;15.560;2023-04-27T09:25:26;99806.44;;;9.06;52.34
10720;BME280;5411;58.386;15.560;2023-04-27T09:28:00;99815.50;;;9.18;51.56
10720;BME280;5411;58.386;15.560;2023-04-27T09:30:29;99809.72;;;9.28;48.70
10720;BME280;5411;58.386;15.560;2023-04-27T09:33:00;99803.59;;;9.01;50.78
10720;BME280;5411;58.386;15.560;2023-04-27T09:35:31;99803.59;;;8.81;51.96
10720;BME280;5411;58.386;15.560;2023-04-27T09:38:03;99809.53;;;8.57;52.88
10720;BME280;5411;58.386;15.560;2023-04-27T09:40:32;99808.50;;;8.51;53.71
10720;BME280;5411;58.386;15.560;2023-04-27T09:43:02;99803.38;;;8.56;53.92
10720;BME280;5411;58.386;15.560;2023-04-27T09:45:32;99803.38;;;8.56;52.33
10720;BME280;5411;58.386;15.560;2023-04-27T09:48:03;99800.28;;;8.46;51.39
10720;BME280;5411;58.386;15.560;2023-04-27T09:50:35;99805.19;;;8.43;52.25
10720;BME280;5411;58.386;15.560;2023-04-27T09:53:07;99810.13;;;8.46;51.75
10720;BME280;5411;58.386;15.560;2023-04-27T09:55:39;99821.41;;;8.54;52.45
10720;BME280;5411;58.386;15.560;2023-04-27T09:58:22;99816.47;;;8.45;55.40
10720;BME280;5411;58.386;15.560;2023-04-27T10:01:02;99817.22;;;8.26;60.62
10720;BME280;5411;58.386;15.560;2023-04-27T10:03:41;99819.44;;;8.15;63.25
10720;BME280;5411;58.386;15.560;2023-04-27T10:06:59;99809.56;;;7.96;60.74
10720;BME280;5411;58.386;15.560;2023-04-27T10:09:34;99803.22;;;7.97;59.37
10720;BME280;5411;58.386;15.560;2023-04-27T10:12:14;99800.41;;;8.12;57.50
10720;BME280;5411;58.386;15.560;2023-04-27T10:14:50;99804.16;;;8.37;55.63
10720;BME280;5411;58.386;15.560;2023-04-27T10:17:24;99811.78;;;8.73;55.80
10720;BME280;5411;58.386;15.560;2023-04-27T10:19:58;99805.41;;;9.07;54.07
10720;BME280;5411;58.386;15.560;2023-04-27T10:22:37;99809.50;;;9.43;51.71
10720;BME280;5411;58.386;15.560;2023-04-27T10:25:16;99805.88;;;9.75;50.20
10720;BME280;5411;58.386;15.560;2023-04-27T10:27:49;99807.00;;;9.99;49.50
10720;BME280;5411;58.386;15.560;2023-04-27T10:30:20;99798.28;;;10.17;47.11
10720;BME280;5411;58.386;15.560;2023-04-27T10:32:53;99806.88;;;10.32;44.76
10720;BME280;5411;58.386;15.560;2023-04-27T10:35:32;99808.47;;;10.40;45.25
10720;BME280;5411;58.386;15.560;2023-04-27T10:38:07;99807.00;;;10.75;46.23
10720;BME280;5411;58.386;15.560;2023-04-27T10:40:37;99818.31;;;10.77;44.66
10720;BME280;5411;58.386;15.560;2023-04-27T10:43:12;99814.94;;;10.57;46.52
10720;BME280;5411;58.386;15.560;2023-04-27T10:45:41;99825.78;;;10.37;48.11
10720;BME280;5411;58.386;15.560;2023-04-27T10:48:11;99834.06;;;10.16;48.26
10720;BME280;5411;58.386;15.560;2023-04-27T10:50:43;99840.75;;;9.93;48.81
10720;BME280;5411;58.386;15.560;2023-04-27T10:53:12;99842.28;;;9.70;49.06
10720;BME280;5411;58.386;15.560;2023-04-27T10:55:41;99848.03;;;9.60;50.10
10720;BME280;5411;58.386;15.560;2023-04-27T10:58:09;99855.25;;;9.46;52.18
10720;BME280;5411;58.386;15.560;2023-04-27T11:00:39;99851.59;;;9.34;51.71
10720;BME280;5411;58.386;15.560;2023-04-27T11:03:12;99843.78;;;9.33;50.51
10720;BME280;5411;58.386;15.560;2023-04-27T11:05:46;99842.97;;;9.45;51.29
10720;BME280;5411;58.386;15.560;2023-04-27T11:08:23;99847.63;;;9.63;50.44
10720;BME280;5411;58.386;15.560;2023-04-27T11:10:59;99838.75;;;9.82;48.84
10720;BME280;5411;58.386;15.560;2023-04-27T11:13:28;99840.75;;;9.93;49.51
10720;BME280;5411;58.386;15.560;2023-04-27T11:15:58;99845.53;;;9.85;48.20
10720;BME280;5411;58.386;15.560;2023-04-27T11:18:31;99849.50;;;9.56;47.49
10720;BME280;5411;58.386;15.560;2023-04-27T11:21:07;99851.16;;;9.50;47.18
10720;BME280;5411;58.386;15.560;2023-04-27T11:23:36;99848.44;;;9.63;47.24
10720;BME280;5411;58.386;15.560;2023-04-27T11:26:09;99856.06;;;9.67;48.33
10720;BME280;5411;58.386;15.560;2023-04-27T11:28:40;99861.19;;;9.61;45.45
10720;BME280;5411;58.386;15.560;2023-04-27T11:31:08;99856.09;;;9.53;46.03
10720;BME280;5411;58.386;15.560;2023-04-27T11:33:47;99857.34;;;9.44;46.99
10720;BME280;5411;58.386;15.560;2023-04-27T11:36:18;99879.09;;;9.48;47.08
10720;BME280;5411;58.386;15.560;2023-04-27T11:38:46;99870.66;;;9.51;47.07
10720;BME280;5411;58.386;15.560;2023-04-27T11:41:15;99865.50;;;9.69;46.71
10720;BME280;5411;58.386;15.560;2023-04-27T11:43:44;99870.78;;;9.89;46.50
10720;BME280;5411;58.386;15.560;2023-04-27T11:46:18;99873.81;;;9.99;46.00
10720;BME280;5411;58.386;15.560;2023-04-27T11:48:47;99877.56;;;9.91;46.38
10720;BME280;5411;58.386;15.560;2023-04-27T11:51:17;99874.13;;;9.71;46.51
10720;BME280;5411;58.386;15.560;2023-04-27T11:53:46;99883.59;;;9.60;46.52
10720;BME280;5411;58.386;15.560;2023-04-27T11:56:17;99887.53;;;9.38;47.12
10720;BME280;5411;58.386;15.560;2023-04-27T11:58:47;99890.81;;;9.14;47.76
10720;BME280;5411;58.386;15.560;2023-04-27T12:01:17;99881.16;;;9.19;47.99
10720;BME280;5411;58.386;15.560;2023-04-27T12:04:02;99889.38;;;9.38;48.55
10720;BME280;5411;58.386;15.560;2023-04-27T12:06:33;99882.38;;;9.56;47.02
10720;BME280;5411;58.386;15.560;2023-04-27T12:09:01;99886.69;;;9.57;45.98
10720;BME280;5411;58.386;15.560;2023-04-27T12:11:31;99873.75;;;9.54;46.16
10720;BME280;5411;58.386;15.560;2023-04-27T12:14:01;99877.59;;;9.78;47.30
10720;BME280;5411;58.386;15.560;2023-04-27T12:16:32;99889.75;;;9.68;48.09
10720;BME280;5411;58.386;15.560;2023-04-27T12:19:01;99880.09;;;9.60;48.16
10720;BME280;5411;58.386;15.560;2023-04-27T12:21:32;99895.75;;;9.43;47.54
10720;BME280;5411;58.386;15.560;2023-04-27T12:24:00;99898.22;;;9.32;47.81
10720;BME280;5411;58.386;15.560;2023-04-27T12:26:34;99895.34;;;9.13;48.26
10720;BME280;5411;58.386;15.560;2023-04-27T12:29:02;99913.81;;;9.15;47.99
10720;BME280;5411;58.386;15.560;2023-04-27T12:31:31;99896.34;;;9.19;48.45
10720;BME280;5411;58.386;15.560;2023-04-27T12:33:59;99893.47;;;9.20;48.58
10720;BME280;5411;58.386;15.560;2023-04-27T12:36:28;99911.75;;;9.37;49.50
10720;BME280;5411;58.386;15.560;2023-04-27T12:39:11;99900.66;;;9.53;49.13
10720;BME280;5411;58.386;15.560;2023-04-27T12:41:42;99905.75;;;9.74;46.39
10720;BME280;5411;58.386;15.560;2023-04-27T12:44:11;99904.09;;;9.80;44.86
10720;BME280;5411;58.386;15.560;2023-04-27T12:46:41;99915.97;;;10.04;46.03
10720;BME280;5411;58.386;15.560;2023-04-27T12:49:11;99914.72;;;10.06;45.69
10720;BME280;5411;58.386;15.560;2023-04-27T12:51:39;99914.47;;;10.14;44.97
10720;BME280;5411;58.386;15.560;2023-04-27T12:54:09;99915.50;;;10.26;43.96
10720;BME280;5411;58.386;15.560;2023-04-27T12:56:38;99907.41;;;10.46;44.91
10720;BME280;5411;58.386;15.560;2023-04-27T12:59:08;99921.53;;;10.53;42.86
10720;BME280;5411;58.386;15.560;2023-04-27T13:01:36;99911.50;;;10.49;42.32
10720;BME280;5411;58.386;15.560;2023-04-27T13:04:05;99932.34;;;10.33;42.10
10720;BME280;5411;58.386;15.560;2023-04-27T13:06:35;99938.34;;;10.22;43.07
10720;BME280;5411;58.386;15.560;2023-04-27T13:09:04;99940.81;;;10.24;43.34
10720;BME280;5411;58.386;15.560;2023-04-27T13:11:34;99933.16;;;10.34;44.17
10720;BME280;5411;58.386;15.560;2023-04-27T13:14:03;99926.53;;;10.43;44.30
10720;BME280;5411;58.386;15.560;2023-04-27T13:16:32;99926.47;;;10.56;44.49
10720;BME280;5411;58.386;15.560;2023-04-27T13:19:00;99951.53;;;10.68;43.02
10720;BME280;5411;58.386;15.560;2023-04-27T13:21:31;99941.72;;;10.56;43.01
10720;BME280;5411;58.386;15.560;2023-04-27T13:24:00;99947.94;;;10.50;42.84